sensor_id;sensor_type;location;lat;lon;timestamp;temperature;humidity
48376;DHT22;34178;50.904;11.560;2024-02-21T00:01:21;7.80;99.90
48376;DHT22;34178;50.904;11.560;2024-02-21T00:03:47;7.80;99.90
48376;DHT22;34178;50.904;11.560;2024-02-21T00:06:12;7.80;99.90
48376;DHT22;34178;50.904;11.560;2024-02-21T00:08:38;7.80;99.90
48376;DHT22;34178;50.904;11.560;2024-02-21T00:11:03;7.80;99.90
48376;DHT22;34178;50.904;11.560;2024-02-21T00:13:29;7.80;99.90
48376;DHT22;34178;50.904;11.560;2024-02-21T00:15:55;7.80;99.90
48376;DHT22;34178;50.904;11.560;2024-02-21T00:18:20;7.80;99.90
48376;DHT22;34178;50.904;11.560;2024-02-21T00:20:46;7.80;99.90
48376;DHT22;34178;50.904;11.560;2024-02-21T00:23:11;7.70;99.90
48376;DHT22;34178;50.904;11.560;2024-02-21T00:25:37;7.60;99.90
48376;DHT22;34178;50.904;11.560;2024-02-21T00:28:02;7.60;99.90
48376;DHT22;34178;50.904;11.560;2024-02-21T00:30:28;7.60;99.90
48376;DHT22;34178;50.904;11.560;2024-02-21T00:32:54;7.60;99.90
48376;DHT22;34178;50.904;11.560;2024-02-21T00:35:19;7.50;99.90
48376;DHT22;34178;50.904;11.560;2024-02-21T00:37:45;7.40;99.90
48376;DHT22;34178;50.904;11.560;2024-02-21T00:40:10;7.40;99.90
48376;DHT22;34178;50.904;11.560;2024-02-21T00:42:36;7.30;99.90
48376;DHT22;34178;50.904;11.560;2024-02-21T00:45:01;7.30;99.90
48376;DHT22;34178;50.904;11.560;2024-02-21T00:47:27;7.20;99.90
48376;DHT22;34178;50.904;11.560;2024-02-21T00:49:52;7.20;99.90
48376;DHT22;34178;50.904;11.560;2024-02-21T00:52:18;7.10;99.90
48376;DHT22;34178;50.904;11.560;2024-02-21T00:54:44;7.10;99.90
48376;DHT22;34178;50.904;11.560;2024-02-21T00:57:09;7.10;99.90
48376;DHT22;34178;50.904;11.560;2024-02-21T00:59:35;7.10;99.90
48376;DHT22;34178;50.904;11.560;2024-02-21T01:02:00;7.10;99.90
48376;DHT22;34178;50.904;11.560;2024-02-21T01:04:26;7.10;99.90
48376;DHT22;34178;50.904;11.560;2024-02-21T01:06:51;7.10;99.90
48376;DHT22;34178;50.904;11.560;2024-02-21T01:09:17;7.00;99.90
48376;DHT22;34178;50.904;11.560;2024-02-21T01:11:42;7.10;99.90
48376;DHT22;34178;50.904;11.560;2024-02-21T01:14:08;7.10;99.90
48376;DHT22;34178;50.904;11.560;2024-02-21T01:16:33;7.10;99.90
48376;DHT22;34178;50.904;11.560;2024-02-21T01:18:59;7.00;99.90
48376;DHT22;34178;50.904;11.560;2024-02-21T01:21:24;7.00;99.90
48376;DHT22;34178;50.904;11.560;2024-02-21T01:23:50;7.00;99.90
48376;DHT22;34178;50.904;11.560;2024-02-21T01:26:15;7.00;99.90
48376;DHT22;34178;50.904;11.560;2024-02-21T01:28:41;7.00;99.90
48376;DHT22;34178;50.904;11.560;2024-02-21T01:31:07;7.00;99.90
48376;DHT22;34178;50.904;11.560;2024-02-21T01:33:32;7.00;99.90
48376;DHT22;34178;50.904;11.560;2024-02-21T01:36:03;7.00;99.90
48376;DHT22;34178;50.904;11.560;2024-02-21T01:38:29;7.00;99.90
48376;DHT22;34178;50.904;11.560;2024-02-21T01:40:54;7.10;99.90
48376;DHT22;34178;50.904;11.560;2024-02-21T01:43:20;7.10;99.90
48376;DHT22;34178;50.904;11.560;2024-02-21T01:45:46;7.10;99.90
48376;DHT22;34178;50.904;11.560;2024-02-21T01:48:14;7.10;99.90
48376;DHT22;34178;50.904;11.560;2024-02-21T01:50:39;7.00;99.90
48376;DHT22;34178;50.904;11.560;2024-02-21T01:53:05;7.00;99.90
48376;DHT22;34178;50.904;11.560;2024-02-21T01:55:31;6.90;99.90
48376;DHT22;34178;50.904;11.560;2024-02-21T01:57:56;6.90;99.90
48376;DHT22;34178;50.904;11.560;2024-02-21T02:00:22;6.90;99.90
48376;DHT22;34178;50.904;11.560;2024-02-21T02:02:48;6.90;99.90
48376;DHT22;34178;50.904;11.560;2024-02-21T02:05:14;6.90;99.90
48376;DHT22;34178;50.904;11.560;2024-02-21T02:07:42;6.90;99.90
48376;DHT22;34178;50.904;11.560;2024-02-21T02:10:08;7.00;99.90
48376;DHT22;34178;50.904;11.560;2024-02-21T02:12:35;7.00;99.90
48376;DHT22;34178;50.904;11.560;2024-02-21T02:15:01;7.00;99.90
48376;DHT22;34178;50.904;11.560;2024-02-21T02:17:30;6.90;99.90
48376;DHT22;34178;50.904;11.560;2024-02-21T02:19:56;6.90;99.90
48376;DHT22;34178;50.904;11.560;2024-02-21T02:22:30;7.00;99.90
48376;DHT22;34178;50.904;11.560;2024-02-21T02:24:57;7.10;99.90
48376;DHT22;34178;50.904;11.560;2024-02-21T02:27:23;7.00;99.90
48376;DHT22;34178;50.904;11.560;2024-02-21T02:29:49;7.00;99.90
48376;DHT22;34178;50.904;11.560;2024-02-21T02:32:15;7.00;99.90
48376;DHT22;34178;50.904;11.560;2024-02-21T02:34:41;7.00;99.90
48376;DHT22;34178;50.904;11.560;2024-02-21T02:37:06;7.00;99.90
48376;DHT22;34178;50.904;11.560;2024-02-21T02:39:32;7.00;99.90
48376;DHT22;34178;50.904;11.560;2024-02-21T02:41:57;6.90;99.90
48376;DHT22;34178;50.904;11.560;2024-02-21T02:44:23;6.90;99.90
48376;DHT22;34178;50.904;11.560;2024-02-21T02:46:49;6.80;99.90
48376;DHT22;34178;50.904;11.560;2024-02-21T02:49:14;6.90;99.90
48376;DHT22;34178;50.904;11.560;2024-02-21T02:51:43;6.90;99.90
48376;DHT22;34178;50.904;11.560;2024-02-21T02:54:09;6.80;99.90
48376;DHT22;34178;50.904;11.560;2024-02-21T02:56:35;6.90;99.90
48376;DHT22;34178;50.904;11.560;2024-02-21T02:59:00;6.90;99.90
48376;DHT22;34178;50.904;11.560;2024-02-21T03:01:26;6.90;99.90
48376;DHT22;34178;50.904;11.560;2024-02-21T03:03:52;6.90;99.90
48376;DHT22;34178;50.904;11.560;2024-02-21T03:06:17;6.90;99.90
48376;DHT22;34178;50.904;11.560;2024-02-21T03:08:43;6.90;99.90
48376;DHT22;34178;50.904;11.560;2024-02-21T03:11:08;6.90;99.90
48376;DHT22;34178;50.904;11.560;2024-02-21T03:13:34;6.90;99.90
48376;DHT22;34178;50.904;11.560;2024-02-21T03:15:59;6.90;99.90
48376;DHT22;34178;50.904;11.560;2024-02-21T03:18:25;6.90;99.90
48376;DHT22;34178;50.904;11.560;2024-02-21T03:20:50;6.90;99.90
48376;DHT22;34178;50.904;11.560;2024-02-21T03:23:16;6.80;99.90
48376;DHT22;34178;50.904;11.560;2024-02-21T03:25:41;6.90;99.90
48376;DHT22;34178;50.904;11.560;2024-02-21T03:28:07;7.00;99.90
48376;DHT22;34178;50.904;11.560;2024-02-21T03:30:32;7.10;99.90
48376;DHT22;34178;50.904;11.560;2024-02-21T03:32:59;7.10;99.90
48376;DHT22;34178;50.904;11.560;2024-02-21T03:35:24;7.20;99.90
48376;DHT22;34178;50.904;11.560;2024-02-21T03:37:52;7.30;99.90
48376;DHT22;34178;50.904;11.560;2024-02-21T03:40:17;7.30;99.90
48376;DHT22;34178;50.904;11.560;2024-02-21T03:42:43;7.30;99.90
48376;DHT22;34178;50.904;11.560;2024-02-21T03:45:09;7.30;99.90
48376;DHT22;34178;50.904;11.560;2024-02-21T03:47:34;7.30;99.90
48376;DHT22;34178;50.904;11.560;2024-02-21T03:50:00;7.20;99.90
48376;DHT22;34178;50.904;11.560;2024-02-21T03:52:26;7.20;99.90
48376;DHT22;34178;50.904;11.560;2024-02-21T03:54:51;7.20;99.90
48376;DHT22;34178;50.904;11.560;2024-02-21T03:57:17;7.20;99.90
48376;DHT22;34178;50.904;11.560;2024-02-21T03:59:42;7.20;99.90
48376;DHT22;34178;50.904;11.560;2024-02-21T04:02:08;7.20;99.90
48376;DHT22;34178;50.904;11.560;2024-02-21T04:04:34;7.20;99.90
48376;DHT22;34178;50.904;11.560;2024-02-21T04:07:00;7.10;99.90
48376;DHT22;34178;50.904;11.560;2024-02-21T04:09:27;7.10;99.90
48376;DHT22;34178;50.904;11.560;2024-02-21T04:11:52;7.10;99.90
48376;DHT22;34178;50.904;11.560;2024-02-21T04:14:18;7.10;99.90
48376;DHT22;34178;50.904;11.560;2024-02-21T04:16:43;7.20;99.90
48376;DHT22;34178;50.904;11.560;2024-02-21T04:19:09;7.10;99.90
48376;DHT22;34178;50.904;11.560;2024-02-21T04:21:34;7.00;99.90
48376;DHT22;34178;50.904;11.560;2024-02-21T04:24:00;7.10;99.90
48376;DHT22;34178;50.904;11.560;2024-02-21T04:26:27;7.00;99.90
48376;DHT22;34178;50.904;11.560;2024-02-21T04:28:52;6.90;99.90
48376;DHT22;34178;50.904;11.560;2024-02-21T04:31:18;6.90;99.90
48376;DHT22;34178;50.904;11.560;2024-02-21T04:33:43;6.90;99.90
48376;DHT22;34178;50.904;11.560;2024-02-21T04:36:09;6.80;99.90
48376;DHT22;34178;50.904;11.560;2024-02-21T04:38:34;6.80;99.90
48376;DHT22;34178;50.904;11.560;2024-02-21T04:41:00;6.80;99.90
48376;DHT22;34178;50.904;11.560;2024-02-21T04:43:25;6.70;99.90
48376;DHT22;34178;50.904;11.560;2024-02-21T04:45:51;6.70;99.90
48376;DHT22;34178;50.904;11.560;2024-02-21T04:48:18;6.60;99.90
48376;DHT22;34178;50.904;11.560;2024-02-21T04:50:44;6.60;99.90
48376;DHT22;34178;50.904;11.560;2024-02-21T04:53:09;6.60;99.90
48376;DHT22;34178;50.904;11.560;2024-02-21T04:55:35;6.60;99.90
48376;DHT22;34178;50.904;11.560;2024-02-21T04:58:00;6.70;99.90
48376;DHT22;34178;50.904;11.560;2024-02-21T05:00:27;6.60;99.90
48376;DHT22;34178;50.904;11.560;2024-02-21T05:02:53;6.70;99.90
48376;DHT22;34178;50.904;11.560;2024-02-21T05:05:18;6.70;99.90
48376;DHT22;34178;50.904;11.560;2024-02-21T05:07:44;6.70;99.90
48376;DHT22;34178;50.904;11.560;2024-02-21T05:10:10;6.70;99.90
48376;DHT22;34178;50.904;11.560;2024-02-21T05:12:36;6.80;99.90
48376;DHT22;34178;50.904;11.560;2024-02-21T05:15:02;6.80;99.90
48376;DHT22;34178;50.904;11.560;2024-02-21T05:17:28;6.70;99.90
48376;DHT22;34178;50.904;11.560;2024-02-21T05:19:53;6.70;99.90
48376;DHT22;34178;50.904;11.560;2024-02-21T05:22:19;6.70;99.90
48376;DHT22;34178;50.904;11.560;2024-02-21T05:24:44;6.70;99.90
48376;DHT22;34178;50.904;11.560;2024-02-21T05:27:10;6.60;99.90
48376;DHT22;34178;50.904;11.560;2024-02-21T05:29:35;6.50;99.90
48376;DHT22;34178;50.904;11.560;2024-02-21T05:32:01;6.40;99.90
48376;DHT22;34178;50.904;11.560;2024-02-21T05:34:27;6.30;99.90
48376;DHT22;34178;50.904;11.560;2024-02-21T05:36:53;6.20;99.90
48376;DHT22;34178;50.904;11.560;2024-02-21T05:39:19;6.10;99.90
48376;DHT22;34178;50.904;11.560;2024-02-21T05:41:45;6.10;99.90
48376;DHT22;34178;50.904;11.560;2024-02-21T05:44:10;6.10;99.90
48376;DHT22;34178;50.904;11.560;2024-02-21T05:46:36;6.10;99.90
48376;DHT22;34178;50.904;11.560;2024-02-21T05:49:02;6.00;99.90
48376;DHT22;34178;50.904;11.560;2024-02-21T05:51:27;5.90;99.90
48376;DHT22;34178;50.904;11.560;2024-02-21T05:53:53;5.90;99.90
48376;DHT22;34178;50.904;11.560;2024-02-21T05:56:18;5.70;99.90
48376;DHT22;34178;50.904;11.560;2024-02-21T05:58:44;5.60;99.90
48376;DHT22;34178;50.904;11.560;2024-02-21T06:01:10;5.50;99.90
48376;DHT22;34178;50.904;11.560;2024-02-21T06:03:35;5.50;99.90
48376;DHT22;34178;50.904;11.560;2024-02-21T06:06:04;5.40;99.90
48376;DHT22;34178;50.904;11.560;2024-02-21T06:08:30;5.40;99.90
48376;DHT22;34178;50.904;11.560;2024-02-21T06:10:56;5.40;99.90
48376;DHT22;34178;50.904;11.560;2024-02-21T06:13:21;5.40;99.90
48376;DHT22;34178;50.904;11.560;2024-02-21T06:15:47;5.40;99.90
48376;DHT22;34178;50.904;11.560;2024-02-21T06:18:13;5.40;99.90
48376;DHT22;34178;50.904;11.560;2024-02-21T06:20:38;5.40;99.90
48376;DHT22;34178;50.904;11.560;2024-02-21T06:23:06;5.40;99.90
48376;DHT22;34178;50.904;11.560;2024-02-21T06:25:31;5.50;99.90
48376;DHT22;34178;50.904;11.560;2024-02-21T06:27:57;5.60;99.90
48376;DHT22;34178;50.904;11.560;2024-02-21T06:30:22;5.60;99.90
48376;DHT22;34178;50.904;11.560;2024-02-21T06:32:48;5.70;99.90
48376;DHT22;34178;50.904;11.560;2024-02-21T06:35:13;5.80;99.90
48376;DHT22;34178;50.904;11.560;2024-02-21T06:37:39;5.90;99.90
48376;DHT22;34178;50.904;11.560;2024-02-21T06:40:04;6.00;99.90
48376;DHT22;34178;50.904;11.560;2024-02-21T06:42:30;6.00;99.90
48376;DHT22;34178;50.904;11.560;2024-02-21T06:44:56;6.10;99.90
48376;DHT22;34178;50.904;11.560;2024-02-21T06:47:22;6.10;99.90
48376;DHT22;34178;50.904;11.560;2024-02-21T06:49:48;6.20;99.90
48376;DHT22;34178;50.904;11.560;2024-02-21T06:52:14;6.30;99.90
48376;DHT22;34178;50.904;11.560;2024-02-21T06:54:42;6.40;99.90
48376;DHT22;34178;50.904;11.560;2024-02-21T06:57:08;6.60;99.90
48376;DHT22;34178;50.904;11.560;2024-02-21T06:59:33;6.60;99.90
48376;DHT22;34178;50.904;11.560;2024-02-21T07:01:59;6.60;99.90
48376;DHT22;34178;50.904;11.560;2024-02-21T07:04:26;6.60;99.90
48376;DHT22;34178;50.904;11.560;2024-02-21T07:06:52;6.80;99.90
48376;DHT22;34178;50.904;11.560;2024-02-21T07:09:18;6.90;99.90
48376;DHT22;34178;50.904;11.560;2024-02-21T07:11:43;6.90;99.90
48376;DHT22;34178;50.904;11.560;2024-02-21T07:14:09;7.00;99.90
48376;DHT22;34178;50.904;11.560;2024-02-21T07:16:34;7.10;99.90
48376;DHT22;34178;50.904;11.560;2024-02-21T07:19:00;7.10;99.90
48376;DHT22;34178;50.904;11.560;2024-02-21T07:21:25;7.10;99.90
48376;DHT22;34178;50.904;11.560;2024-02-21T07:23:51;7.20;99.90
48376;DHT22;34178;50.904;11.560;2024-02-21T07:26:16;7.20;99.90
48376;DHT22;34178;50.904;11.560;2024-02-21T07:28:42;7.40;99.90
48376;DHT22;34178;50.904;11.560;2024-02-21T07:31:07;7.50;99.90
48376;DHT22;34178;50.904;11.560;2024-02-21T07:33:33;7.60;99.90
48376;DHT22;34178;50.904;11.560;2024-02-21T07:36:00;7.70;99.90
48376;DHT22;34178;50.904;11.560;2024-02-21T07:38:26;7.70;99.90
48376;DHT22;34178;50.904;11.560;2024-02-21T07:40:52;7.80;99.90
48376;DHT22;34178;50.904;11.560;2024-02-21T07:43:17;7.70;99.90
48376;DHT22;34178;50.904;11.560;2024-02-21T07:45:43;7.70;99.90
48376;DHT22;34178;50.904;11.560;2024-02-21T07:48:08;7.70;99.90
48376;DHT22;34178;50.904;11.560;2024-02-21T07:50:34;7.70;99.90
48376;DHT22;34178;50.904;11.560;2024-02-21T07:52:59;7.70;99.90
48376;DHT22;34178;50.904;11.560;2024-02-21T07:55:25;7.70;99.90
48376;DHT22;34178;50.904;11.560;2024-02-21T07:57:51;7.80;99.90
48376;DHT22;34178;50.904;11.560;2024-02-21T08:00:16;7.80;99.90
48376;DHT22;34178;50.904;11.560;2024-02-21T08:02:48;7.80;99.90
48376;DHT22;34178;50.904;11.560;2024-02-21T08:05:14;7.90;99.90
48376;DHT22;34178;50.904;11.560;2024-02-21T08:07:39;7.90;99.90
48376;DHT22;34178;50.904;11.560;2024-02-21T08:10:05;7.90;99.90
48376;DHT22;34178;50.904;11.560;2024-02-21T08:12:33;8.00;99.90
48376;DHT22;34178;50.904;11.560;2024-02-21T08:15:00;8.10;99.90
48376;DHT22;34178;50.904;11.560;2024-02-21T08:17:25;8.20;99.90
48376;DHT22;34178;50.904;11.560;2024-02-21T08:19:51;8.20;99.90
48376;DHT22;34178;50.904;11.560;2024-02-21T08:22:16;8.20;99.90
48376;DHT22;34178;50.904;11.560;2024-02-21T08:24:42;8.20;99.90
48376;DHT22;34178;50.904;11.560;2024-02-21T08:27:07;8.30;99.90
48376;DHT22;34178;50.904;11.560;2024-02-21T08:29:33;8.30;99.90
48376;DHT22;34178;50.904;11.560;2024-02-21T08:31:58;8.30;99.90
48376;DHT22;34178;50.904;11.560;2024-02-21T08:34:24;8.30;99.90
48376;DHT22;34178;50.904;11.560;2024-02-21T08:36:49;8.30;99.90
48376;DHT22;34178;50.904;11.560;2024-02-21T08:39:15;8.40;99.90
48376;DHT22;34178;50.904;11.560;2024-02-21T08:41:44;8.50;99.90
48376;DHT22;34178;50.904;11.560;2024-02-21T08:44:09;8.50;99.90
48376;DHT22;34178;50.904;11.560;2024-02-21T08:46:35;8.50;99.90
48376;DHT22;34178;50.904;11.560;2024-02-21T08:49:03;8.60;99.90
48376;DHT22;34178;50.904;11.560;2024-02-21T08:51:28;8.60;99.90
48376;DHT22;34178;50.904;11.560;2024-02-21T08:53:54;8.70;99.90
48376;DHT22;34178;50.904;11.560;2024-02-21T08:56:20;8.70;99.90
48376;DHT22;34178;50.904;11.560;2024-02-21T08:58:46;8.80;99.90
48376;DHT22;34178;50.904;11.560;2024-02-21T09:01:12;8.80;99.90
48376;DHT22;34178;50.904;11.560;2024-02-21T09:03:38;8.90;99.90
48376;DHT22;34178;50.904;11.560;2024-02-21T09:06:04;8.90;99.90
48376;DHT22;34178;50.904;11.560;2024-02-21T09:08:29;9.00;99.90
48376;DHT22;34178;50.904;11.560;2024-02-21T09:10:55;9.00;99.90
48376;DHT22;34178;50.904;11.560;2024-02-21T09:13:20;9.10;99.90
48376;DHT22;34178;50.904;11.560;2024-02-21T09:15:47;9.10;99.90
48376;DHT22;34178;50.904;11.560;2024-02-21T09:18:12;9.20;99.90
48376;DHT22;34178;50.904;11.560;2024-02-21T09:20:38;9.20;99.90
48376;DHT22;34178;50.904;11.560;2024-02-21T09:23:03;9.30;99.90
48376;DHT22;34178;50.904;11.560;2024-02-21T09:25:29;9.50;99.90
48376;DHT22;34178;50.904;11.560;2024-02-21T09:27:55;9.40;99.90
48376;DHT22;34178;50.904;11.560;2024-02-21T09:30:22;9.50;99.90
48376;DHT22;34178;50.904;11.560;2024-02-21T09:32:48;9.50;99.90
48376;DHT22;34178;50.904;11.560;2024-02-21T09:35:13;9.60;99.90
48376;DHT22;34178;50.904;11.560;2024-02-21T09:37:39;9.80;99.90
48376;DHT22;34178;50.904;11.560;2024-02-21T09:40:05;9.80;99.90
48376;DHT22;34178;50.904;11.560;2024-02-21T09:44:59;9.80;99.90
48376;DHT22;34178;50.904;11.560;2024-02-21T09:47:30;9.90;99.90
48376;DHT22;34178;50.904;11.560;2024-02-21T09:49:58;10.00;99.90
48376;DHT22;34178;50.904;11.560;2024-02-21T09:52:25;9.90;99.90
48376;DHT22;34178;50.904;11.560;2024-02-21T09:54:51;9.80;99.90
48376;DHT22;34178;50.904;11.560;2024-02-21T09:57:17;9.70;99.90
48376;DHT22;34178;50.904;11.560;2024-02-21T09:59:43;9.80;99.90
48376;DHT22;34178;50.904;11.560;2024-02-21T10:02:10;10.10;99.90
48376;DHT22;34178;50.904;11.560;2024-02-21T10:04:39;10.30;99.90
48376;DHT22;34178;50.904;11.560;2024-02-21T10:07:05;10.40;99.90
48376;DHT22;34178;50.904;11.560;2024-02-21T10:09:30;10.40;99.90
48376;DHT22;34178;50.904;11.560;2024-02-21T10:11:56;10.50;99.90
48376;DHT22;34178;50.904;11.560;2024-02-21T10:14:32;10.60;99.90
48376;DHT22;34178;50.904;11.560;2024-02-21T10:16:57;10.60;99.90
48376;DHT22;34178;50.904;11.560;2024-02-21T10:19:27;10.70;99.90
48376;DHT22;34178;50.904;11.560;2024-02-21T10:22:02;10.50;99.90
48376;DHT22;34178;50.904;11.560;2024-02-21T10:24:29;10.40;99.90
48376;DHT22;34178;50.904;11.560;2024-02-21T10:27:05;10.60;99.90
48376;DHT22;34178;50.904;11.560;2024-02-21T10:29:33;10.70;99.90
48376;DHT22;34178;50.904;11.560;2024-02-21T10:34:31;10.80;99.90
48376;DHT22;34178;50.904;11.560;2024-02-21T10:37:03;10.90;99.90
48376;DHT22;34178;50.904;11.560;2024-02-21T10:39:33;11.10;99.90
48376;DHT22;34178;50.904;11.560;2024-02-21T10:42:00;11.10;99.90
48376;DHT22;34178;50.904;11.560;2024-02-21T10:44:29;11.10;99.90
48376;DHT22;34178;50.904;11.560;2024-02-21T10:46:58;11.10;99.90
48376;DHT22;34178;50.904;11.560;2024-02-21T10:49:24;11.20;99.90
48376;DHT22;34178;50.904;11.560;2024-02-21T10:51:50;11.30;99.90
48376;DHT22;34178;50.904;11.560;2024-02-21T10:54:30;11.40;99.90
48376;DHT22;34178;50.904;11.560;2024-02-21T10:56:59;11.30;99.90
48376;DHT22;34178;50.904;11.560;2024-02-21T10:59:25;11.50;99.90
48376;DHT22;34178;50.904;11.560;2024-02-21T11:01:52;11.50;99.90
48376;DHT22;34178;50.904;11.560;2024-02-21T11:04:18;11.40;99.90
48376;DHT22;34178;50.904;11.560;2024-02-21T11:06:44;11.40;99.90
48376;DHT22;34178;50.904;11.560;2024-02-21T11:09:10;11.50;99.90
48376;DHT22;34178;50.904;11.560;2024-02-21T11:11:37;11.60;99.90
48376;DHT22;34178;50.904;11.560;2024-02-21T11:16:57;11.50;99.90
48376;DHT22;34178;50.904;11.560;2024-02-21T11:19:26;11.60;99.90
48376;DHT22;34178;50.904;11.560;2024-02-21T11:21:52;11.50;99.90
48376;DHT22;34178;50.904;11.560;2024-02-21T11:24:28;11.60;99.90
48376;DHT22;34178;50.904;11.560;2024-02-21T11:26:54;11.80;99.90
48376;DHT22;34178;50.904;11.560;2024-02-21T11:29:23;12.00;99.90
48376;DHT22;34178;50.904;11.560;2024-02-21T11:31:48;12.20;99.90
48376;DHT22;34178;50.904;11.560;2024-02-21T11:34:17;12.50;99.90
48376;DHT22;34178;50.904;11.560;2024-02-21T11:36:46;12.70;99.90
48376;DHT22;34178;50.904;11.560;2024-02-21T11:39:12;12.90;99.90
48376;DHT22;34178;50.904;11.560;2024-02-21T11:41:38;12.70;99.90
48376;DHT22;34178;50.904;11.560;2024-02-21T11:44:03;12.60;99.90
48376;DHT22;34178;50.904;11.560;2024-02-21T11:46:29;12.90;99.90
48376;DHT22;34178;50.904;11.560;2024-02-21T11:48:54;14.10;98.00
48376;DHT22;34178;50.904;11.560;2024-02-21T11:51:26;17.30;94.20
48376;DHT22;34178;50.904;11.560;2024-02-21T11:53:52;19.80;91.90
48376;DHT22;34178;50.904;11.560;2024-02-21T11:56:18;19.00;89.50
48376;DHT22;34178;50.904;11.560;2024-02-21T11:58:45;19.70;85.60
48376;DHT22;34178;50.904;11.560;2024-02-21T12:01:10;20.30;83.50
48376;DHT22;34178;50.904;11.560;2024-02-21T12:03:36;20.80;82.70
48376;DHT22;34178;50.904;11.560;2024-02-21T12:06:02;20.80;78.90
48376;DHT22;34178;50.904;11.560;2024-02-21T12:08:40;21.80;77.00
48376;DHT22;34178;50.904;11.560;2024-02-21T12:11:15;21.60;75.00
48376;DHT22;34178;50.904;11.560;2024-02-21T12:13:41;19.60;75.10
48376;DHT22;34178;50.904;11.560;2024-02-21T12:16:06;18.10;76.60
48376;DHT22;34178;50.904;11.560;2024-02-21T12:18:32;19.50;77.90
48376;DHT22;34178;50.904;11.560;2024-02-21T12:20:58;21.60;73.70
48376;DHT22;34178;50.904;11.560;2024-02-21T12:23:26;22.50;69.90
48376;DHT22;34178;50.904;11.560;2024-02-21T12:25:52;22.00;69.20
48376;DHT22;34178;50.904;11.560;2024-02-21T12:28:19;21.10;70.90
48376;DHT22;34178;50.904;11.560;2024-02-21T12:30:45;22.20;69.90
48376;DHT22;34178;50.904;11.560;2024-02-21T12:33:10;22.50;67.80
48376;DHT22;34178;50.904;11.560;2024-02-21T12:35:36;23.60;67.20
48376;DHT22;34178;50.904;11.560;2024-02-21T12:38:01;23.70;66.80
48376;DHT22;34178;50.904;11.560;2024-02-21T12:40:27;23.50;64.20
48376;DHT22;34178;50.904;11.560;2024-02-21T12:43:00;25.50;63.40
48376;DHT22;34178;50.904;11.560;2024-02-21T12:45:29;25.50;59.80
48376;DHT22;34178;50.904;11.560;2024-02-21T12:47:55;24.80;60.90
48376;DHT22;34178;50.904;11.560;2024-02-21T12:50:21;26.20;59.00
48376;DHT22;34178;50.904;11.560;2024-02-21T12:52:48;24.30;60.00
48376;DHT22;34178;50.904;11.560;2024-02-21T12:55:15;25.60;60.00
48376;DHT22;34178;50.904;11.560;2024-02-21T12:57:41;25.40;56.90
48376;DHT22;34178;50.904;11.560;2024-02-21T13:00:07;25.10;57.10
48376;DHT22;34178;50.904;11.560;2024-02-21T13:02:34;25.70;56.20
48376;DHT22;34178;50.904;11.560;2024-02-21T13:05:00;23.40;57.30
48376;DHT22;34178;50.904;11.560;2024-02-21T13:07:28;25.00;57.60
48376;DHT22;34178;50.904;11.560;2024-02-21T13:09:54;24.40;57.00
48376;DHT22;34178;50.904;11.560;2024-02-21T13:12:19;23.40;56.80
48376;DHT22;34178;50.904;11.560;2024-02-21T13:14:45;22.10;58.20
48376;DHT22;34178;50.904;11.560;2024-02-21T13:17:11;22.10;59.50
48376;DHT22;34178;50.904;11.560;2024-02-21T13:19:36;21.80;59.00
48376;DHT22;34178;50.904;11.560;2024-02-21T13:22:02;22.60;59.20
48376;DHT22;34178;50.904;11.560;2024-02-21T13:24:27;23.30;58.70
48376;DHT22;34178;50.904;11.560;2024-02-21T13:26:53;24.50;58.70
48376;DHT22;34178;50.904;11.560;2024-02-21T13:29:19;24.10;56.70
48376;DHT22;34178;50.904;11.560;2024-02-21T13:31:45;22.10;58.40
48376;DHT22;34178;50.904;11.560;2024-02-21T13:34:11;21.20;60.20
48376;DHT22;34178;50.904;11.560;2024-02-21T13:36:36;19.90;60.50
48376;DHT22;34178;50.904;11.560;2024-02-21T13:39:02;19.60;61.60
48376;DHT22;34178;50.904;11.560;2024-02-21T13:41:30;18.40;61.90
48376;DHT22;34178;50.904;11.560;2024-02-21T13:43:56;17.70;63.70
48376;DHT22;34178;50.904;11.560;2024-02-21T13:46:21;18.50;63.50
48376;DHT22;34178;50.904;11.560;2024-02-21T13:48:47;18.40;62.80
48376;DHT22;34178;50.904;11.560;2024-02-21T13:51:12;18.50;62.80
48376;DHT22;34178;50.904;11.560;2024-02-21T13:53:38;17.30;64.80
48376;DHT22;34178;50.904;11.560;2024-02-21T13:56:04;16.20;67.00
48376;DHT22;34178;50.904;11.560;2024-02-21T13:58:29;15.10;70.10
48376;DHT22;34178;50.904;11.560;2024-02-21T14:00:55;14.40;70.70
48376;DHT22;34178;50.904;11.560;2024-02-21T14:03:21;14.10;71.50
48376;DHT22;34178;50.904;11.560;2024-02-21T14:05:47;13.70;72.70
48376;DHT22;34178;50.904;11.560;2024-02-21T14:08:14;13.90;73.10
48376;DHT22;34178;50.904;11.560;2024-02-21T14:10:40;13.90;72.40
48376;DHT22;34178;50.904;11.560;2024-02-21T14:13:05;14.10;72.80
48376;DHT22;34178;50.904;11.560;2024-02-21T14:15:31;14.30;73.10
48376;DHT22;34178;50.904;11.560;2024-02-21T14:17:56;14.60;73.50
48376;DHT22;34178;50.904;11.560;2024-02-21T14:20:22;14.70;72.40
48376;DHT22;34178;50.904;11.560;2024-02-21T14:22:47;14.50;72.10
48376;DHT22;34178;50.904;11.560;2024-02-21T14:25:13;14.10;72.70
48376;DHT22;34178;50.904;11.560;2024-02-21T14:27:40;13.90;72.30
48376;DHT22;34178;50.904;11.560;2024-02-21T14:30:06;14.00;73.80
48376;DHT22;34178;50.904;11.560;2024-02-21T14:32:35;13.80;72.80
48376;DHT22;34178;50.904;11.560;2024-02-21T14:35:01;13.70;73.40
48376;DHT22;34178;50.904;11.560;2024-02-21T14:37:26;13.50;74.00
48376;DHT22;34178;50.904;11.560;2024-02-21T14:39:52;13.30;74.50
48376;DHT22;34178;50.904;11.560;2024-02-21T14:42:17;13.40;74.40
48376;DHT22;34178;50.904;11.560;2024-02-21T14:44:43;13.50;75.30
48376;DHT22;34178;50.904;11.560;2024-02-21T14:47:09;13.40;74.80
48376;DHT22;34178;50.904;11.560;2024-02-21T14:49:34;13.10;75.50
48376;DHT22;34178;50.904;11.560;2024-02-21T14:52:01;12.90;76.00
48376;DHT22;34178;50.904;11.560;2024-02-21T14:54:26;12.70;77.00
48376;DHT22;34178;50.904;11.560;2024-02-21T14:56:52;12.60;77.90
48376;DHT22;34178;50.904;11.560;2024-02-21T14:59:19;12.50;77.80
48376;DHT22;34178;50.904;11.560;2024-02-21T15:01:45;12.50;78.30
48376;DHT22;34178;50.904;11.560;2024-02-21T15:04:11;12.50;78.90
48376;DHT22;34178;50.904;11.560;2024-02-21T15:06:36;12.40;78.80
48376;DHT22;34178;50.904;11.560;2024-02-21T15:09:05;12.40;79.60
48376;DHT22;34178;50.904;11.560;2024-02-21T15:11:32;12.30;79.80
48376;DHT22;34178;50.904;11.560;2024-02-21T15:13:58;12.20;80.50
48376;DHT22;34178;50.904;11.560;2024-02-21T15:16:23;12.20;80.80
48376;DHT22;34178;50.904;11.560;2024-02-21T15:18:49;12.10;80.90
48376;DHT22;34178;50.904;11.560;2024-02-21T15:21:15;12.10;80.80
48376;DHT22;34178;50.904;11.560;2024-02-21T15:23:40;12.00;81.60
48376;DHT22;34178;50.904;11.560;2024-02-21T15:26:06;12.00;81.60